Time;durP1;ratioP1;P1;durP2;ratioP2;P2;SDS_P1;SDS_P2;PMS_P1;PMS_P2;Temp;Humidity;BMP_temperature;BMP_pressure;BME280_temperature;BME280_humidity;BME280_pressure;Samples;Min_cycle;Max_cycle;Signal;HPM_P1;HPM_P2
2021/07/23 00:00:53;;;;;;;8.07;3.20;;;;;;;15.66;58.42;98693.66;5031796;28;20530;-67
2021/07/23 00:03:19;;;;;;;11.75;3.60;;;;;;;15.60;58.43;98689.16;5031448;28;20033;-67
2021/07/23 00:05:46;;;;;;;11.20;3.40;;;;;;;15.62;58.50;98697.78;5031326;28;20098;-67
2021/07/23 00:08:12;;;;;;;9.48;3.47;;;;;;;15.62;58.51;98699.66;5031465;28;20458;-67
2021/07/23 00:10:37;;;;;;;7.63;3.30;;;;;;;15.51;58.86;98682.41;5031271;28;20030;-67
2021/07/23 00:13:03;;;;;;;13.82;3.38;;;;;;;15.57;58.99;98689.59;5030359;28;20041;-67
2021/07/23 00:15:29;;;;;;;9.32;3.55;;;;;;;15.46;58.62;98670.69;5029972;28;20473;-67
2021/07/23 00:17:55;;;;;;;5.50;3.17;;;;;;;15.59;59.08;98700.88;5031406;28;20041;-67
2021/07/23 00:20:20;;;;;;;7.00;3.17;;;;;;;15.59;59.04;98697.41;5029455;28;20042;-67
2021/07/23 00:22:46;;;;;;;7.43;3.20;;;;;;;15.58;58.89;98704.59;5031097;28;20033;-67
2021/07/23 00:25:12;;;;;;;12.93;3.30;;;;;;;15.54;59.13;98695.38;5029908;28;20374;-67
2021/07/23 00:27:38;;;;;;;6.55;2.97;;;;;;;15.52;59.09;98684.03;5031099;28;20030;-67
2021/07/23 00:30:05;;;;;;;5.53;3.30;;;;;;;15.53;59.14;98701.75;4985842;28;1266795;-67
2021/07/23 00:32:31;;;;;;;6.18;3.00;;;;;;;15.55;59.30;98704.19;5014240;28;20440;-67
2021/07/23 00:35:05;;;;;;;8.07;3.10;;;;;;;15.55;59.49;98702.34;5031830;28;20044;-67
2021/07/23 00:37:31;;;;;;;7.13;3.05;;;;;;;15.54;59.42;98699.88;5031760;28;20032;-67
2021/07/23 00:39:57;;;;;;;11.82;3.00;;;;;;;15.54;59.74;98695.38;5030571;28;20041;-67
2021/07/23 00:42:35;;;;;;;9.50;3.15;;;;;;;15.55;59.51;98693.50;5030526;28;20469;-67
2021/07/23 00:45:02;;;;;;;7.50;2.83;;;;;;;15.57;59.36;98697.63;5013889;28;20477;-67
2021/07/23 00:47:28;;;;;;;6.10;2.67;;;;;;;15.56;59.32;98695.16;5031792;28;20500;-67
2021/07/23 00:49:56;;;;;;;8.73;2.30;;;;;;;15.42;59.51;98666.81;5030438;28;20044;-67
2021/07/23 00:52:22;;;;;;;4.22;2.22;;;;;;;15.51;59.62;98695.81;5013911;28;20041;-67
2021/07/23 00:54:48;;;;;;;9.80;2.45;;;;;;;15.48;60.07;98687.38;5030165;28;20037;-67
2021/07/23 00:57:15;;;;;;;6.57;2.50;;;;;;;15.46;60.23;98690.25;5014009;28;20034;-67
2021/07/23 00:59:41;;;;;;;8.85;2.50;;;;;;;15.38;60.07;98674.44;5013788;28;20030;-67
2021/07/23 01:02:08;;;;;;;8.60;2.65;;;;;;;15.42;59.98;98685.53;4997702;28;20059;-67
2021/07/23 01:04:34;;;;;;;4.53;2.47;;;;;;;15.24;60.02;98662.94;5030008;28;20041;-67
2021/07/23 01:07:00;;;;;;;8.30;2.53;;;;;;;15.39;60.12;98684.09;5030267;28;20032;-67
2021/07/23 01:09:26;;;;;;;6.00;2.58;;;;;;;15.36;60.27;98689.81;5030472;28;20120;-67
2021/07/23 01:11:52;;;;;;;3.70;2.10;;;;;;;15.20;60.31;98677.75;5030008;28;20180;-67
2021/07/23 01:14:22;;;;;;;5.13;2.50;;;;;;;15.23;60.82;98685.38;5030158;28;20037;-67
2021/07/23 01:16:48;;;;;;;5.20;2.30;;;;;;;15.17;60.97;98688.06;5031105;28;20444;-67
2021/07/23 01:19:14;;;;;;;7.95;2.25;;;;;;;15.08;61.01;98666.06;5030027;28;20041;-67
2021/07/23 01:21:42;;;;;;;5.55;2.70;;;;;;;15.17;61.16;98686.22;5029907;28;20064;-67
2021/07/23 01:24:13;;;;;;;7.03;2.55;;;;;;;15.03;61.27;98663.22;5013857;28;20478;-67
2021/07/23 01:26:50;;;;;;;5.10;2.30;;;;;;;15.10;61.42;98672.03;4998345;28;20060;-67
2021/07/23 01:29:24;;;;;;;6.78;2.00;;;;;;;14.97;61.51;98650.69;5014652;28;20049;-67
2021/07/23 01:31:50;;;;;;;5.18;2.13;;;;;;;15.03;61.85;98663.22;5029720;28;20382;-67
2021/07/23 01:34:16;;;;;;;8.80;2.20;;;;;;;15.03;61.46;98657.84;5033513;28;20037;-66
2021/07/23 01:36:42;;;;;;;3.47;2.00;;;;;;;15.03;61.79;98659.69;5035075;28;20187;-67
2021/07/23 01:39:09;;;;;;;3.33;1.83;;;;;;;14.98;61.98;98657.66;5033806;28;20049;-67
2021/07/23 01:41:36;;;;;;;5.35;1.90;;;;;;;14.85;61.96;98638.97;5017480;28;20033;-67
2021/07/23 01:44:02;;;;;;;7.60;2.00;;;;;;;14.92;62.03;98660.34;5017335;28;20033;-67
2021/07/23 01:46:28;;;;;;;3.40;1.75;;;;;;;14.92;62.10;98665.69;5017468;28;20037;-67
2021/07/23 01:49:05;;;;;;;6.38;2.20;;;;;;;14.73;62.38;98642.50;5017158;28;20037;-67
2021/07/23 01:51:36;;;;;;;6.78;1.90;;;;;;;14.85;62.44;98657.66;5033729;28;20124;-67
2021/07/23 01:54:05;;;;;;;4.22;2.00;;;;;;;14.82;62.52;98659.97;5033683;28;20049;-68
2021/07/23 01:56:30;;;;;;;3.58;1.83;;;;;;;14.81;62.72;98660.97;5001033;28;20129;-67
2021/07/23 01:59:01;;;;;;;3.80;2.15;;;;;;;14.81;62.88;98666.31;5033585;28;20045;-67
2021/07/23 02:01:33;;;;;;;7.68;2.08;;;;;;;14.62;62.77;98633.25;5001598;28;20045;-67
2021/07/23 02:04:14;;;;;;;6.60;1.80;;;;;;;14.62;63.23;98651.94;5033415;28;20080;-67
2021/07/23 02:06:40;;;;;;;7.13;1.80;;;;;;;14.59;63.62;98644.34;5033236;28;20041;-67
2021/07/23 02:09:07;;;;;;;6.60;2.00;;;;;;;14.51;63.60;98625.88;5017166;28;20107;-67
2021/07/23 02:11:41;;;;;;;4.72;1.80;;;;;;;14.65;63.66;98646.19;5033467;28;20037;-67
2021/07/23 02:14:07;;;;;;;7.00;2.10;;;;;;;14.67;63.54;98643.31;4984222;28;20538;-67
2021/07/23 02:16:36;;;;;;;5.63;1.90;;;;;;;14.68;63.52;98628.94;5033380;28;20397;-67
2021/07/23 02:19:03;;;;;;;8.43;2.13;;;;;;;14.74;63.42;98639.63;5000402;28;20069;-67
2021/07/23 02:21:44;;;;;;;9.90;2.20;;;;;;;14.70;63.43;98626.84;5032873;28;20362;-67
2021/07/23 02:24:10;;;;;;;5.72;2.05;;;;;;;14.77;63.41;98641.06;5032975;28;20049;-67
2021/07/23 02:26:36;;;;;;;8.23;2.35;;;;;;;14.77;63.17;98633.88;5032961;28;20037;-68
2021/07/23 02:29:01;;;;;;;5.13;1.85;;;;;;;14.78;63.33;98645.34;5016240;28;20033;-67
2021/07/23 02:31:34;;;;;;;6.40;1.75;;;;;;;14.80;63.31;98652.16;5033118;28;20035;-67
2021/07/23 02:34:05;;;;;;;;;;;;;;;14.83;63.23;98648.22;5033007;28;20036;-67
2021/07/23 02:36:34;;;;;;;9.35;2.05;;;;;;;14.84;63.09;98645.34;5033062;28;19920;-67
2021/07/23 02:39:03;;;;;;;10.35;2.45;;;;;;;14.86;63.16;98647.81;5016396;28;20060;-67
2021/07/23 02:41:32;;;;;;;7.07;1.98;;;;;;;14.86;63.36;98639.78;5032930;28;20045;-67
2021/07/23 02:43:59;;;;;;;10.55;2.38;;;;;;;14.86;63.31;98637.94;5032120;28;20574;-67
2021/07/23 02:46:27;;;;;;;13.23;2.63;;;;;;;14.91;63.56;98631.97;5016411;28;20053;-67
2021/07/23 02:48:55;;;;;;;8.50;2.10;;;;;;;14.96;63.22;98640.19;5032593;28;20045;-67
2021/07/23 02:51:26;;;;;;;9.20;1.98;;;;;;;14.98;63.02;98635.44;5016849;28;20033;-67
2021/07/23 02:53:52;;;;;;;8.38;2.10;;;;;;;15.00;63.20;98639.56;5032448;28;20030;-67
2021/07/23 02:56:19;;;;;;;6.97;2.10;;;;;;;15.03;63.13;98643.66;5032910;28;20037;-67
2021/07/23 02:58:46;;;;;;;6.22;1.92;;;;;;;15.07;62.99;98637.69;5032317;28;20045;-67
2021/07/23 03:01:14;;;;;;;11.27;1.98;;;;;;;15.11;63.14;98641.56;5032440;28;20419;-67
2021/07/23 03:03:41;;;;;;;4.97;1.80;;;;;;;15.12;63.08;98635.19;5033551;28;20041;-67
2021/07/23 03:06:07;;;;;;;5.18;2.03;;;;;;;15.19;62.78;98632.50;5031994;28;20045;-67
2021/07/23 03:08:33;;;;;;;9.80;2.30;;;;;;;15.10;62.83;98621.22;5033753;28;20037;-67
2021/07/23 03:11:02;;;;;;;6.00;1.95;;;;;;;15.27;62.68;98635.75;5032121;28;20040;-67
2021/07/23 03:13:37;;;;;;;5.63;1.67;;;;;;;15.33;62.56;98636.75;5017020;28;20131;-68
2021/07/23 03:16:09;;;;;;;12.85;1.90;;;;;;;15.38;62.33;98634.28;5032308;28;20037;-67
2021/07/23 03:18:36;;;;;;;5.28;1.80;;;;;;;15.42;62.49;98632.84;5016554;28;20041;-67
2021/07/23 03:21:02;;;;;;;6.70;1.50;;;;;;;15.47;62.41;98622.31;5031870;28;20152;-67
2021/07/23 03:23:28;;;;;;;11.70;1.80;;;;;;;15.56;62.63;98617.53;5015631;28;20052;-67
2021/07/23 03:25:54;;;;;;;8.90;1.95;;;;;;;15.65;62.56;98619.75;4998969;28;20037;-67
2021/07/23 03:28:32;;;;;;;5.50;1.50;;;;;;;15.76;62.72;98624.41;5031926;28;20044;-67
2021/07/23 03:31:16;;;;;;;3.97;1.95;;;;;;;15.86;62.67;98624.78;5003919;28;20044;-67
2021/07/23 03:33:46;;;;;;;5.88;1.75;;;;;;;16.01;61.81;98625.28;5031553;28;20034;-67
2021/07/23 03:36:16;;;;;;;5.95;1.80;;;;;;;16.12;61.65;98621.91;5031658;28;20034;-67
2021/07/23 03:38:45;;;;;;;5.43;1.70;;;;;;;16.16;61.38;98615.06;5031659;28;20414;-67
2021/07/23 03:41:12;;;;;;;5.80;1.70;;;;;;;16.25;61.19;98613.75;5031572;28;20128;-67
2021/07/23 03:43:38;;;;;;;8.30;1.42;;;;;;;16.34;61.06;98611.63;4999271;28;20180;-67
2021/07/23 03:46:08;;;;;;;6.32;1.73;;;;;;;16.41;60.10;98601.66;5015839;28;20493;-67
2021/07/23 03:48:41;;;;;;;3.90;1.42;;;;;;;16.44;59.84;98596.72;5032691;28;20041;-67
2021/07/23 03:51:11;;;;;;;6.13;1.70;;;;;;;16.44;59.64;98603.94;5015479;28;20049;-67
2021/07/23 03:53:39;;;;;;;12.05;2.58;;;;;;;16.46;59.69;98602.69;4999081;28;20033;-67
2021/07/23 03:56:17;;;;;;;3.33;1.40;;;;;;;16.46;60.31;98600.00;5030574;28;20037;-67
2021/07/23 03:58:44;;;;;;;9.95;2.45;;;;;;;16.45;60.33;98606.38;5031257;28;20060;-67
2021/07/23 04:01:14;;;;;;;2.28;1.30;;;;;;;16.55;59.91;98601.38;5015631;28;20037;-67
2021/07/23 04:03:45;;;;;;;3.88;1.50;;;;;;;16.63;59.64;98602.94;5032372;28;20128;-67
2021/07/23 04:06:15;;;;;;;2.50;1.27;;;;;;;16.68;59.46;98587.00;5015041;28;20069;-68
2021/07/23 04:08:41;;;;;;;5.43;1.42;;;;;;;16.75;59.14;98598.47;5031062;28;20029;-68
2021/07/23 04:11:14;;;;;;;5.18;1.52;;;;;;;16.78;58.46;98590.81;5014719;28;20033;-67
2021/07/23 04:13:41;;;;;;;6.82;1.40;;;;;;;16.84;59.04;98594.44;5015850;28;20038;-69
2021/07/23 04:16:07;;;;;;;2.80;1.50;;;;;;;16.92;58.76;98591.47;5032377;28;20501;-67
2021/07/23 04:18:39;;;;;;;4.15;1.70;;;;;;;16.99;58.42;98588.72;5031121;28;20041;-68
2021/07/23 04:21:27;;;;;;;3.72;1.50;;;;;;;17.11;57.98;98589.63;5030569;28;20048;-67
2021/07/23 04:23:53;;;;;;;3.30;1.20;;;;;;;17.17;57.53;98588.72;5031952;28;20385;-67
2021/07/23 04:26:21;;;;;;;2.00;1.50;;;;;;;17.14;57.26;98567.69;5031805;28;20128;-67
2021/07/23 04:28:48;;;;;;;4.57;1.23;;;;;;;17.44;56.65;98588.19;5030559;28;20029;-67
2021/07/23 04:31:14;;;;;;;3.47;1.20;;;;;;;17.76;56.24;98584.22;5030671;28;20124;-68
2021/07/23 04:33:52;;;;;;;1.83;1.10;;;;;;;18.03;55.61;98579.25;5030650;28;20037;-67
2021/07/23 04:36:35;;;;;;;2.65;1.33;;;;;;;18.28;54.82;98590.63;5031690;28;20045;-67
2021/07/23 04:39:33;;;;;;;2.83;1.35;;;;;;;18.38;54.09;98586.34;5034761;28;20051;-67
2021/07/23 04:42:05;;;;;;;4.07;1.30;;;;;;;18.33;54.41;98588.03;5030424;28;20029;-67
2021/07/23 04:44:32;;;;;;;5.53;1.48;;;;;;;18.31;54.70;98566.78;4997743;28;20170;-67
2021/07/23 04:47:01;;;;;;;2.30;1.48;;;;;;;18.65;54.28;98583.19;5013795;28;20048;-68
2021/07/23 04:49:29;;;;;;;3.88;1.30;;;;;;;18.78;53.26;98567.63;4997850;28;20128;-67
2021/07/23 04:51:57;;;;;;;5.85;1.50;;;;;;;18.84;52.69;98568.53;5014083;28;20033;-67
2021/07/23 04:54:41;;;;;;;4.60;1.50;;;;;;;18.99;52.87;98561.59;5031718;28;20044;-67
2021/07/23 04:57:47;;;;;;;2.92;1.30;;;;;;;19.07;52.38;98563.09;5037860;28;20056;-67
2021/07/23 05:00:14;;;;;;;5.07;1.27;;;;;;;19.14;52.14;98570.00;5032598;28;20080;-68
2021/07/23 05:02:43;;;;;;;2.30;1.30;;;;;;;19.16;52.14;98565.19;5040326;28;20586;-67
2021/07/23 05:05:12;;;;;;;2.35;1.63;;;;;;;19.04;52.92;98563.56;5030617;28;20041;-67
2021/07/23 05:07:41;;;;;;;4.25;1.25;;;;;;;19.12;52.68;98573.97;5030078;28;20033;-67
2021/07/23 05:10:08;;;;;;;2.15;1.40;;;;;;;18.92;52.55;98555.53;5030024;28;20055;-67
2021/07/23 05:12:37;;;;;;;3.43;1.60;;;;;;;18.84;53.40;98555.91;5029920;28;20470;-67
2021/07/23 05:15:03;;;;;;;4.00;1.88;;;;;;;18.96;53.84;98551.31;5029948;28;20433;-68
2021/07/23 05:17:32;;;;;;;4.63;1.70;;;;;;;19.12;52.91;98557.81;5030230;28;20432;-67
2021/07/23 05:19:58;;;;;;;3.30;1.40;;;;;;;19.08;53.25;98554.78;5029907;28;20041;-67
2021/07/23 05:22:24;;;;;;;5.95;1.50;;;;;;;19.20;52.91;98552.91;5013918;28;20040;-68
2021/07/23 05:24:49;;;;;;;3.20;1.83;;;;;;;19.22;52.69;98529.22;5013925;28;20128;-67
2021/07/23 05:27:15;;;;;;;6.65;1.58;;;;;;;19.36;52.01;98524.41;5013953;28;20033;-68
2021/07/23 05:29:41;;;;;;;4.53;1.48;;;;;;;19.50;51.99;98540.03;5031658;28;20506;-67
2021/07/23 05:32:07;;;;;;;4.78;1.30;;;;;;;19.34;51.69;98521.94;5031301;28;20056;-67
2021/07/23 05:34:33;;;;;;;3.38;1.20;;;;;;;19.22;52.31;98506.91;5013643;28;20033;-67
2021/07/23 05:36:58;;;;;;;1.90;1.33;;;;;;;19.47;51.99;98521.66;5013403;28;20124;-67
2021/07/23 05:39:24;;;;;;;3.92;1.50;;;;;;;19.68;51.00;98520.16;5013964;28;20037;-67
2021/07/23 05:41:50;;;;;;;3.33;1.20;;;;;;;19.81;50.64;98509.88;4997256;28;20033;-68
2021/07/23 05:44:16;;;;;;;6.80;1.50;;;;;;;19.76;51.15;98503.56;5031568;28;20025;-68
2021/07/23 05:46:41;;;;;;;5.03;1.23;;;;;;;20.01;50.70;98517.47;4997751;28;20120;-67
2021/07/23 05:49:07;;;;;;;4.45;1.40;;;;;;;20.15;50.59;98513.44;5029773;28;20465;-67
2021/07/23 05:51:33;;;;;;;2.13;1.27;;;;;;;20.22;49.49;98503.28;5029562;28;20128;-67
2021/07/23 05:53:58;;;;;;;5.28;1.17;;;;;;;20.22;49.99;98510.56;5029743;28;20030;-67
2021/07/23 05:56:24;;;;;;;4.88;1.48;;;;;;;20.35;49.21;98502.94;5031034;28;20034;-67
2021/07/23 05:58:50;;;;;;;10.63;1.17;;;;;;;20.48;49.07;98505.28;4996811;28;20048;-68
2021/07/23 06:01:15;;;;;;;5.72;1.50;;;;;;;20.51;48.90;98506.69;5030926;28;20470;-67
2021/07/23 06:03:41;;;;;;;16.45;1.92;;;;;;;20.47;49.16;98506.34;5029601;28;20025;-67
2021/07/23 06:06:07;;;;;;;3.58;1.25;;;;;;;20.52;49.02;98495.63;5030649;28;20053;-67
2021/07/23 06:08:33;;;;;;;4.60;1.25;;;;;;;20.50;48.94;98473.47;5029650;28;20124;-67
2021/07/23 06:11:05;;;;;;;2.92;1.13;;;;;;;20.70;47.24;98483.72;5012818;28;20033;-68
2021/07/23 06:13:44;;;;;;;3.58;1.00;;;;;;;20.79;47.24;98460.66;5031051;28;20047;-68
2021/07/23 06:16:11;;;;;;;5.43;1.10;;;;;;;21.06;47.02;98461.53;5030610;28;20041;-67
2021/07/23 06:18:38;;;;;;;6.10;1.10;;;;;;;21.25;46.54;98477.13;5031317;28;20091;-67
2021/07/23 06:21:06;;;;;;;6.80;1.20;;;;;;;21.20;46.95;98462.75;5034406;28;20041;-67
2021/07/23 06:23:32;;;;;;;4.47;1.15;;;;;;;21.46;46.58;98478.94;5034702;28;20044;-68
2021/07/23 06:26:01;;;;;;;4.90;0.98;;;;;;;21.62;45.65;98475.31;5034212;28;20033;-68
2021/07/23 06:28:27;;;;;;;5.13;1.48;;;;;;;21.42;44.41;98477.00;5034399;28;20171;-68
2021/07/23 06:30:59;;;;;;;2.88;0.98;;;;;;;21.38;45.22;98473.19;5032760;28;20528;-67
2021/07/23 06:33:24;;;;;;;6.38;1.13;;;;;;;21.35;45.29;98473.72;5034133;28;20117;-68
2021/07/23 06:35:50;;;;;;;5.43;1.17;;;;;;;21.42;45.47;98474.31;5034032;28;20120;-68
2021/07/23 06:38:16;;;;;;;2.63;0.80;;;;;;;21.53;45.45;98476.03;5034126;28;20520;-67
2021/07/23 06:40:41;;;;;;;7.70;1.20;;;;;;;21.59;45.87;98477.72;5016245;28;20037;-67
2021/07/23 06:43:07;;;;;;;3.75;1.00;;;;;;;21.23;45.01;98467.66;5033912;28;20454;-67
2021/07/23 06:45:33;;;;;;;9.45;1.08;;;;;;;21.22;46.09;98463.28;5033980;28;20042;-67
2021/07/23 06:47:58;;;;;;;10.95;0.80;;;;;;;21.25;45.30;98469.00;5033899;28;20037;-68
2021/07/23 06:50:24;;;;;;;5.75;0.80;;;;;;;21.39;44.78;98461.31;5016191;28;20373;-68
2021/07/23 06:52:50;;;;;;;4.50;0.90;;;;;;;21.58;44.58;98458.00;5016022;28;20038;-69
2021/07/23 06:55:16;;;;;;;8.40;1.00;;;;;;;21.62;44.26;98459.09;5033796;28;20045;-67
2021/07/23 06:57:41;;;;;;;7.47;0.88;;;;;;;21.81;44.32;98464.16;5032479;28;20039;-67
2021/07/23 07:00:08;;;;;;;4.75;0.98;;;;;;;21.85;44.08;98449.84;5032237;28;20037;-67
2021/07/23 07:02:33;;;;;;;2.22;0.90;;;;;;;22.05;43.92;98455.41;5033556;28;20034;-68
2021/07/23 07:04:59;;;;;;;5.10;0.93;;;;;;;22.22;43.77;98461.47;5032235;28;20488;-68
2021/07/23 07:07:25;;;;;;;4.40;0.70;;;;;;;22.41;42.37;98448.34;5033445;28;20049;-68
2021/07/23 07:09:51;;;;;;;4.55;1.00;;;;;;;22.41;42.33;98451.03;5032204;28;20042;-68
2021/07/23 07:12:17;;;;;;;4.57;1.50;;;;;;;22.70;42.13;98457.72;5033582;28;20405;-67
2021/07/23 07:14:43;;;;;;;1.60;0.90;;;;;;;22.98;41.58;98447.28;5032439;28;20072;-68
2021/07/23 07:17:08;;;;;;;2.78;1.00;;;;;;;23.13;40.98;98435.66;5033225;28;20034;-68
2021/07/23 07:19:34;;;;;;;2.08;0.80;;;;;;;23.40;40.98;98436.28;5033339;28;20037;-68
2021/07/23 07:22:00;;;;;;;7.85;0.90;;;;;;;23.70;40.07;98439.00;5033183;28;20045;-68
2021/07/23 07:24:25;;;;;;;5.47;0.90;;;;;;;23.84;39.55;98447.41;5031953;28;20029;-68
2021/07/23 07:26:52;;;;;;;13.52;1.40;;;;;;;23.88;39.13;98464.78;5015608;28;20061;-68
2021/07/23 07:29:18;;;;;;;8.80;1.10;;;;;;;24.15;39.17;98444.44;5032950;28;20049;-68
2021/07/23 07:31:45;;;;;;;3.67;0.85;;;;;;;24.65;37.81;98433.47;5032066;28;20044;-68
2021/07/23 07:34:11;;;;;;;6.45;1.10;;;;;;;25.53;36.28;98434.34;5032878;28;20040;-68
2021/07/23 07:36:37;;;;;;;4.45;0.80;;;;;;;26.62;33.91;98433.59;5032889;28;20033;-68
2021/07/23 07:39:04;;;;;;;5.47;1.30;;;;;;;27.87;31.33;98395.59;5031679;28;20084;-68
2021/07/23 07:41:29;;;;;;;3.65;0.93;;;;;;;27.98;31.44;98432.50;5031630;28;20071;-68
2021/07/23 07:43:56;;;;;;;5.43;1.00;;;;;;;29.07;29.24;98427.97;5031505;28;20127;-68
2021/07/23 07:46:22;;;;;;;2.60;0.90;;;;;;;29.25;28.68;98419.63;5031707;28;20072;-68
2021/07/23 07:48:47;;;;;;;5.30;0.80;;;;;;;28.04;30.83;98414.94;5031546;28;20087;-68
2021/07/23 07:51:13;;;;;;;5.65;1.25;;;;;;;27.58;31.12;98405.88;5031361;28;20490;-68
2021/07/23 07:53:39;;;;;;;7.47;1.05;;;;;;;26.85;32.15;98410.22;5032604;28;20082;-68
2021/07/23 07:56:11;;;;;;;2.47;1.13;;;;;;;27.53;31.31;98430.50;5032572;28;20381;-68
2021/07/23 07:58:37;;;;;;;5.55;1.13;;;;;;;29.27;28.84;98422.03;5031323;28;20389;-68
2021/07/23 08:01:07;;;;;;;7.38;1.20;;;;;;;30.00;27.62;98416.19;5031100;28;20054;-68
2021/07/23 08:03:33;;;;;;;7.82;0.90;;;;;;;29.24;28.12;98425.38;5014762;28;20041;-68
2021/07/23 08:06:03;;;;;;;4.82;1.33;;;;;;;30.18;27.16;98412.41;5031105;28;20044;-68
2021/07/23 08:08:29;;;;;;;5.38;1.17;;;;;;;29.88;27.29;98410.44;5031207;28;20034;-68
2021/07/23 08:10:55;;;;;;;10.57;3.38;;;;;;;30.32;27.39;98413.16;5031094;28;20037;-69
2021/07/23 08:13:20;;;;;;;4.22;1.52;;;;;;;30.46;26.76;98416.63;5032274;28;20457;-68
2021/07/23 08:15:46;;;;;;;7.53;1.33;;;;;;;30.68;26.03;98409.09;5030996;28;20040;-68
2021/07/23 08:18:14;;;;;;;2.50;1.10;;;;;;;30.81;26.17;98402.75;5032104;28;20040;-68
2021/07/23 08:20:41;;;;;;;10.02;1.30;;;;;;;30.78;26.63;98397.88;5032148;28;20025;-68
2021/07/23 08:23:07;;;;;;;4.25;1.10;;;;;;;30.61;25.95;98397.81;5032022;28;20076;-68
2021/07/23 08:25:32;;;;;;;6.75;1.20;;;;;;;29.89;27.51;98387.44;5030851;28;20064;-68
2021/07/23 08:27:58;;;;;;;16.58;1.50;;;;;;;28.86;28.56;98374.81;5030783;28;20037;-68
2021/07/23 08:30:24;;;;;;;6.00;1.40;;;;;;;27.59;30.83;98372.03;5030729;28;20049;-68
2021/07/23 08:32:49;;;;;;;6.07;1.52;;;;;;;27.47;31.57;98382.59;5014264;28;20389;-68
2021/07/23 08:35:15;;;;;;;8.93;1.50;;;;;;;27.03;32.36;98395.78;5014113;28;20124;-68
2021/07/23 08:37:41;;;;;;;4.28;1.27;;;;;;;25.41;35.13;98360.50;5031806;28;20469;-68
2021/07/23 08:40:08;;;;;;;6.75;1.70;;;;;;;24.95;36.08;98372.75;5031730;28;20033;-68
2021/07/23 08:42:35;;;;;;;3.20;1.15;;;;;;;24.86;37.01;98375.25;5031347;28;20041;-68
2021/07/23 08:45:04;;;;;;;4.82;1.45;;;;;;;24.86;36.64;98383.38;5031549;28;20120;-68
2021/07/23 08:47:30;;;;;;;5.53;1.63;;;;;;;24.71;37.18;98383.47;5013967;28;20029;-68
2021/07/23 08:49:56;;;;;;;8.88;1.58;;;;;;;24.59;37.25;98374.81;5030597;28;20387;-68
2021/07/23 08:52:37;;;;;;;4.82;1.42;;;;;;;24.15;38.44;98378.50;5030384;28;20125;-68
2021/07/23 08:55:04;;;;;;;14.27;1.63;;;;;;;24.01;38.83;98366.59;5031371;28;20045;-68
2021/07/23 08:57:29;;;;;;;5.60;1.33;;;;;;;23.77;39.81;98373.66;5031675;28;20037;-68
2021/07/23 08:59:55;;;;;;;5.82;1.27;;;;;;;23.46;40.35;98364.75;5031639;28;20382;-68
2021/07/23 09:02:21;;;;;;;3.10;1.35;;;;;;;23.38;40.73;98370.72;5031379;28;20060;-68
2021/07/23 09:04:47;;;;;;;8.05;1.35;;;;;;;23.27;41.20;98355.53;5031403;28;20285;-67
2021/07/23 09:07:12;;;;;;;3.95;1.40;;;;;;;23.06;41.45;98367.41;5031331;28;20381;-68
2021/07/23 09:09:38;;;;;;;6.90;1.95;;;;;;;22.79;42.32;98356.78;5030094;28;20545;-68
2021/07/23 09:12:04;;;;;;;6.22;1.40;;;;;;;22.81;42.33;98341.09;5013551;28;20029;-67
2021/07/23 09:14:30;;;;;;;5.28;1.90;;;;;;;22.77;42.66;98364.34;5031286;28;20470;-68
2021/07/23 09:16:56;;;;;;;6.70;1.50;;;;;;;22.76;42.11;98376.25;4997506;28;20044;-68
2021/07/23 09:19:22;;;;;;;10.05;2.10;;;;;;;22.83;41.93;98374.09;5029823;28;20045;-67
2021/07/23 09:21:55;;;;;;;2.70;2.03;;;;;;;22.99;41.29;98374.97;5029890;28;20045;-67
2021/07/23 09:24:21;;;;;;;3.75;1.48;;;;;;;23.09;41.05;98356.03;5031072;28;20045;-67
2021/07/23 09:26:47;;;;;;;7.35;1.60;;;;;;;23.15;40.31;98363.91;5029935;28;20044;-68
2021/07/23 09:29:14;;;;;;;6.63;1.40;;;;;;;23.19;40.80;98364.16;5029803;28;20058;-68
2021/07/23 09:31:40;;;;;;;5.38;1.50;;;;;;;23.03;40.88;98363.31;5031173;28;20128;-68
2021/07/23 09:34:07;;;;;;;6.97;1.52;;;;;;;23.06;40.81;98359.28;5013326;28;20042;-67
2021/07/23 09:36:33;;;;;;;4.15;1.55;;;;;;;23.20;40.58;98355.75;5013433;28;20049;-68
2021/07/23 09:39:03;;;;;;;7.47;1.80;;;;;;;23.27;40.14;98345.50;5031233;28;20043;-68
2021/07/23 09:41:29;;;;;;;3.53;1.98;;;;;;;23.81;38.59;98345.75;5029725;28;20033;-69
2021/07/23 09:44:08;;;;;;;6.18;1.70;;;;;;;24.30;37.10;98352.13;5029867;28;20525;-68
2021/07/23 09:46:44;;;;;;;13.60;1.75;;;;;;;24.28;36.47;98339.94;5029761;28;20041;-68
2021/07/23 09:49:30;;;;;;;2.80;1.60;;;;;;;24.18;36.74;98338.06;5030884;28;20033;-68
2021/07/23 09:52:02;;;;;;;3.17;1.83;;;;;;;23.95;37.02;98341.38;5013736;28;20076;-68
2021/07/23 09:54:28;;;;;;;9.07;2.17;;;;;;;23.80;37.03;98343.31;5033170;28;20031;-67
2021/07/23 09:56:54;;;;;;;9.88;2.70;;;;;;;23.59;37.54;98328.16;5017105;28;20042;-67
2021/07/23 09:59:29;;;;;;;6.80;2.42;;;;;;;23.59;38.37;98353.34;5034604;28;20549;-68
2021/07/23 10:02:00;;;;;;;5.57;2.15;;;;;;;23.55;38.69;98341.44;5033546;28;20099;-68
2021/07/23 10:04:45;;;;;;;3.85;2.03;;;;;;;25.21;35.67;98333.44;5033516;28;20474;-68
2021/07/23 10:07:25;;;;;;;10.77;2.17;;;;;;;28.54;29.99;98342.19;5033133;28;20525;-68
2021/07/23 10:09:51;;;;;;;;;;;;;;;31.73;25.29;98341.91;5033741;28;20099;-68
2021/07/23 10:12:17;;;;;;;3.60;1.73;;;;;;;32.63;22.88;98329.63;5033426;28;19913;-68
2021/07/23 10:14:47;;;;;;;8.13;1.80;;;;;;;32.08;21.92;98324.22;5016781;28;20437;-68
2021/07/23 10:17:13;;;;;;;11.18;2.40;;;;;;;33.71;19.85;98324.72;5033060;28;20033;-68
2021/07/23 10:19:39;;;;;;;3.53;1.80;;;;;;;33.40;20.15;98323.59;5034352;28;20462;-68
2021/07/23 10:22:06;;;;;;;10.25;2.13;;;;;;;31.89;21.46;98331.25;5034177;28;20064;-68
2021/07/23 10:24:35;;;;;;;10.63;1.90;;;;;;;29.69;24.49;98314.06;5016396;28;20482;-69
2021/07/23 10:27:05;;;;;;;9.47;2.20;;;;;;;30.53;22.89;98296.38;5034364;28;20052;-68
2021/07/23 10:29:48;;;;;;;5.13;1.63;;;;;;;32.06;21.49;98310.00;5016520;28;20044;-68
2021/07/23 10:32:23;;;;;;;14.48;2.10;;;;;;;34.10;19.12;98315.09;5034052;28;20044;-68
2021/07/23 10:34:49;;;;;;;15.05;2.55;;;;;;;35.51;17.29;98293.50;5034217;28;20033;-68
2021/07/23 10:37:30;;;;;;;12.38;2.60;;;;;;;36.42;15.91;98303.41;5016232;28;20363;-68
2021/07/23 10:40:08;;;;;;;11.13;1.83;;;;;;;36.98;15.27;98315.78;5032703;28;20034;-68
2021/07/23 10:42:38;;;;;;;16.02;2.08;;;;;;;36.44;14.88;98305.81;5034049;28;20072;-69
2021/07/23 10:45:08;;;;;;;10.10;1.58;;;;;;;36.77;14.33;98297.91;5032396;28;20041;-69
2021/07/23 10:47:42;;;;;;;9.02;2.00;;;;;;;36.89;13.65;98295.03;5032686;28;20041;-68
2021/07/23 10:50:25;;;;;;;6.82;1.70;;;;;;;35.95;14.81;98293.50;5032465;28;20033;-68
2021/07/23 10:52:51;;;;;;;24.17;2.05;;;;;;;35.65;15.54;98290.31;5033749;28;20116;-68
2021/07/23 10:55:20;;;;;;;11.27;1.80;;;;;;;35.18;15.76;98292.13;5032479;28;20465;-68
2021/07/23 10:58:04;;;;;;;8.30;1.73;;;;;;;34.00;17.01;98291.53;5033792;28;20440;-68
2021/07/23 11:00:51;;;;;;;13.40;1.50;;;;;;;32.36;18.98;98300.69;5032564;28;20037;-68
2021/07/23 11:03:39;;;;;;;10.85;2.03;;;;;;;30.92;20.55;98299.81;5033336;28;20376;-68
2021/07/23 11:06:18;;;;;;;8.23;3.22;;;;;;;30.00;21.66;98299.22;5031836;28;20144;-68
2021/07/23 11:08:48;;;;;;;5.50;1.70;;;;;;;30.30;21.21;98300.34;5033313;28;20505;-68
2021/07/23 11:11:14;;;;;;;13.40;2.22;;;;;;;29.96;21.81;98287.31;5015670;28;20064;-68
2021/07/23 11:13:41;;;;;;;5.93;1.60;;;;;;;29.65;21.81;98297.44;5015717;28;20037;-68
2021/07/23 11:16:09;;;;;;;8.18;1.90;;;;;;;29.16;22.32;98320.28;4999418;28;20061;-68
2021/07/23 11:18:34;;;;;;;14.77;2.25;;;;;;;28.87;23.56;98330.78;5033304;28;20072;-68
2021/07/23 11:21:01;;;;;;;21.10;2.50;;;;;;;28.44;25.54;98356.81;5033470;28;20061;-68
2021/07/23 11:23:33;;;;;;;20.10;2.40;;;;;;;27.96;27.17;98347.38;5015550;28;20040;-68
2021/07/23 11:26:01;;;;;;;32.60;2.70;;;;;;;27.40;29.39;98355.69;5033022;28;20359;-68
2021/07/23 11:28:27;;;;;;;24.40;2.72;;;;;;;26.96;30.72;98373.53;5031763;28;20029;-67
2021/07/23 11:30:54;;;;;;;16.33;2.60;;;;;;;26.30;32.09;98366.19;5031652;28;20045;-68
2021/07/23 11:33:27;;;;;;;11.15;2.55;;;;;;;25.80;33.50;98369.38;5031651;28;20037;-68
2021/07/23 11:35:53;;;;;;;13.88;2.58;;;;;;;25.44;34.69;98376.25;5031779;28;20033;-68
2021/07/23 11:38:19;;;;;;;15.57;2.40;;;;;;;25.13;35.18;98380.25;5032703;28;20049;-67